Terminal Aerodrome Forecast
Issued by NWS North Platte, NE

Home | Current Version | Previous Version | Graphics & Text | Print | Product List | Glossary On
Versions: 1 2 3 4 5 6 7 8 9 10 11 12 13 14
000
FTUS43 KLBF 211031 AAA
TAFVTN
TAF AMD
KVTN 211031Z 2111/2206 20005KT P6SM BKN010 OVC110
     FM211300 28006KT P6SM SCT120 BKN250
     FM211800 29011KT P6SM SCT200
     FM220000 32008KT P6SM SKC=

USA.gov is the U.S. government's official web portal to all federal, state and local government web resources and services.